sensor_id;sensor_type;location;lat;lon;timestamp;noise_LAeq;noise_LA_min;noise_LA_max;noise_LA01;noise_LA95
52872;Laerm;40124;52.198;9.902;2023-11-22T00:01:41;49.43;41.46;69.33;;
52872;Laerm;40124;52.198;9.902;2023-11-22T00:04:07;43.69;41.46;49.15;;
52872;Laerm;40124;52.198;9.902;2023-11-22T00:06:32;43.58;40.98;48.78;;
52872;Laerm;40124;52.198;9.902;2023-11-22T00:08:57;63.97;41.81;84.60;;
52872;Laerm;40124;52.198;9.902;2023-11-22T00:11:22;44.38;41.75;51.84;;
52872;Laerm;40124;52.198;9.902;2023-11-22T00:13:47;43.29;41.06;46.28;;
52872;Laerm;40124;52.198;9.902;2023-11-22T00:16:14;43.84;42.03;49.24;;
52872;Laerm;40124;52.198;9.902;2023-11-22T00:18:39;59.02;42.29;78.66;;
52872;Laerm;40124;52.198;9.902;2023-11-22T00:21:05;44.00;41.82;47.34;;
52872;Laerm;40124;52.198;9.902;2023-11-22T00:23:30;43.59;41.75;46.20;;
52872;Laerm;40124;52.198;9.902;2023-11-22T00:25:56;43.67;41.22;45.89;;
52872;Laerm;40124;52.198;9.902;2023-11-22T00:28:24;43.40;41.55;47.68;;
52872;Laerm;40124;52.198;9.902;2023-11-22T00:30:49;43.49;41.46;45.14;;
52872;Laerm;40124;52.198;9.902;2023-11-22T00:33:14;43.73;41.75;46.91;;
52872;Laerm;40124;52.198;9.902;2023-11-22T00:35:39;57.19;41.14;76.65;;
52872;Laerm;40124;52.198;9.902;2023-11-22T00:38:05;44.60;41.89;54.09;;
52872;Laerm;40124;52.198;9.902;2023-11-22T00:40:30;43.59;41.61;45.77;;
52872;Laerm;40124;52.198;9.902;2023-11-22T00:42:55;43.68;41.75;47.18;;
52872;Laerm;40124;52.198;9.902;2023-11-22T00:45:21;43.71;41.94;46.69;;
52872;Laerm;40124;52.198;9.902;2023-11-22T00:47:46;43.87;41.38;48.07;;
52872;Laerm;40124;52.198;9.902;2023-11-22T00:50:11;43.61;41.30;52.26;;
52872;Laerm;40124;52.198;9.902;2023-11-22T00:52:37;43.72;41.46;47.10;;
52872;Laerm;40124;52.198;9.902;2023-11-22T00:55:04;43.89;41.82;46.25;;
52872;Laerm;40124;52.198;9.902;2023-11-22T00:57:30;43.76;41.14;46.50;;
52872;Laerm;40124;52.198;9.902;2023-11-22T00:59:55;57.74;41.46;77.88;;
52872;Laerm;40124;52.198;9.902;2023-11-22T01:02:20;43.95;41.30;47.06;;
52872;Laerm;40124;52.198;9.902;2023-11-22T01:04:46;43.93;42.03;46.15;;
52872;Laerm;40124;52.198;9.902;2023-11-22T01:07:11;44.09;42.03;51.12;;
52872;Laerm;40124;52.198;9.902;2023-11-22T01:09:36;43.84;41.68;46.55;;
52872;Laerm;40124;52.198;9.902;2023-11-22T01:12:01;43.45;41.30;45.20;;
52872;Laerm;40124;52.198;9.902;2023-11-22T01:14:27;42.97;40.54;45.63;;
52872;Laerm;40124;52.198;9.902;2023-11-22T01:16:52;64.93;41.30;84.68;;
52872;Laerm;40124;52.198;9.902;2023-11-22T01:19:17;43.62;41.46;46.87;;
52872;Laerm;40124;52.198;9.902;2023-11-22T01:21:43;43.95;41.19;53.01;;
52872;Laerm;40124;52.198;9.902;2023-11-22T01:24:08;44.07;41.14;51.19;;
52872;Laerm;40124;52.198;9.902;2023-11-22T01:26:34;44.83;42.16;49.50;;
52872;Laerm;40124;52.198;9.902;2023-11-22T01:28:59;45.26;41.96;56.90;;
52872;Laerm;40124;52.198;9.902;2023-11-22T01:31:25;57.81;42.71;77.74;;
52872;Laerm;40124;52.198;9.902;2023-11-22T01:33:52;45.19;42.76;49.47;;
52872;Laerm;40124;52.198;9.902;2023-11-22T01:36:17;45.46;43.44;48.99;;
52872;Laerm;40124;52.198;9.902;2023-11-22T01:38:42;44.67;42.59;47.44;;
52872;Laerm;40124;52.198;9.902;2023-11-22T01:41:09;46.11;43.19;52.19;;
52872;Laerm;40124;52.198;9.902;2023-11-22T01:43:34;45.57;43.44;51.74;;
52872;Laerm;40124;52.198;9.902;2023-11-22T01:46:00;45.34;42.71;53.79;;
52872;Laerm;40124;52.198;9.902;2023-11-22T01:48:25;65.83;42.53;85.29;;
52872;Laerm;40124;52.198;9.902;2023-11-22T01:50:51;45.42;43.09;55.10;;
52872;Laerm;40124;52.198;9.902;2023-11-22T01:53:16;44.63;42.64;48.40;;
52872;Laerm;40124;52.198;9.902;2023-11-22T01:55:45;44.49;41.96;47.50;;
52872;Laerm;40124;52.198;9.902;2023-11-22T01:58:11;50.60;42.65;71.34;;
52872;Laerm;40124;52.198;9.902;2023-11-22T02:00:55;54.32;42.53;71.14;;
52872;Laerm;40124;52.198;9.902;2023-11-22T02:03:20;58.52;42.22;78.51;;
52872;Laerm;40124;52.198;9.902;2023-11-22T02:05:46;43.85;42.03;46.18;;
52872;Laerm;40124;52.198;9.902;2023-11-22T02:08:12;58.45;41.61;78.99;;
52872;Laerm;40124;52.198;9.902;2023-11-22T02:10:37;45.34;43.19;51.16;;
52872;Laerm;40124;52.198;9.902;2023-11-22T02:13:06;44.96;43.04;48.88;;
52872;Laerm;40124;52.198;9.902;2023-11-22T02:15:33;45.13;42.16;54.14;;
52872;Laerm;40124;52.198;9.902;2023-11-22T02:17:58;44.52;42.65;48.25;;
52872;Laerm;40124;52.198;9.902;2023-11-22T02:20:23;44.28;42.16;49.35;;
52872;Laerm;40124;52.198;9.902;2023-11-22T02:22:48;61.90;43.19;83.46;;
52872;Laerm;40124;52.198;9.902;2023-11-22T02:25:15;44.79;42.35;56.65;;
52872;Laerm;40124;52.198;9.902;2023-11-22T02:27:40;57.64;41.68;78.98;;
52872;Laerm;40124;52.198;9.902;2023-11-22T02:30:05;45.05;42.47;54.04;;
52872;Laerm;40124;52.198;9.902;2023-11-22T02:32:31;65.39;42.29;85.38;;
52872;Laerm;40124;52.198;9.902;2023-11-22T02:34:56;44.91;41.61;53.26;;
52872;Laerm;40124;52.198;9.902;2023-11-22T02:37:22;56.39;42.22;76.34;;
52872;Laerm;40124;52.198;9.902;2023-11-22T02:40:10;45.07;43.09;51.26;;
52872;Laerm;40124;52.198;9.902;2023-11-22T02:42:41;45.19;42.71;52.33;;
52872;Laerm;40124;52.198;9.902;2023-11-22T02:45:06;53.91;43.24;73.74;;
52872;Laerm;40124;52.198;9.902;2023-11-22T02:47:31;55.75;44.07;75.25;;
52872;Laerm;40124;52.198;9.902;2023-11-22T02:49:56;45.51;43.77;53.44;;
52872;Laerm;40124;52.198;9.902;2023-11-22T02:52:22;55.03;43.09;74.75;;
52872;Laerm;40124;52.198;9.902;2023-11-22T02:54:49;59.59;42.98;79.44;;
52872;Laerm;40124;52.198;9.902;2023-11-22T02:57:14;45.21;43.04;48.34;;
52872;Laerm;40124;52.198;9.902;2023-11-22T02:59:42;45.75;42.65;51.80;;
52872;Laerm;40124;52.198;9.902;2023-11-22T03:02:08;65.26;43.77;83.70;;
52872;Laerm;40124;52.198;9.902;2023-11-22T03:04:33;45.97;43.72;52.11;;
52872;Laerm;40124;52.198;9.902;2023-11-22T03:06:59;65.62;44.19;83.98;;
52872;Laerm;40124;52.198;9.902;2023-11-22T03:09:24;60.35;43.09;81.59;;
52872;Laerm;40124;52.198;9.902;2023-11-22T03:11:51;58.98;43.72;77.70;;
52872;Laerm;40124;52.198;9.902;2023-11-22T03:14:16;59.47;43.72;80.39;;
52872;Laerm;40124;52.198;9.902;2023-11-22T03:16:42;48.30;44.03;64.72;;
52872;Laerm;40124;52.198;9.902;2023-11-22T03:19:07;67.86;44.15;87.73;;
52872;Laerm;40124;52.198;9.902;2023-11-22T03:21:32;67.37;43.99;87.03;;
52872;Laerm;40124;52.198;9.902;2023-11-22T03:24:00;56.80;43.86;77.34;;
52872;Laerm;40124;52.198;9.902;2023-11-22T03:26:28;46.16;43.63;54.29;;
52872;Laerm;40124;52.198;9.902;2023-11-22T03:28:53;45.94;43.94;49.65;;
52872;Laerm;40124;52.198;9.902;2023-11-22T03:31:19;67.77;43.29;87.27;;
52872;Laerm;40124;52.198;9.902;2023-11-22T03:33:44;60.98;43.29;82.76;;
52872;Laerm;40124;52.198;9.902;2023-11-22T03:36:09;64.13;44.90;81.18;;
52872;Laerm;40124;52.198;9.902;2023-11-22T03:38:36;58.29;44.07;78.98;;
52872;Laerm;40124;52.198;9.902;2023-11-22T03:41:01;55.13;44.31;74.64;;
52872;Laerm;40124;52.198;9.902;2023-11-22T03:43:26;67.49;44.54;88.65;;
52872;Laerm;40124;52.198;9.902;2023-11-22T03:45:51;61.79;44.87;79.73;;
52872;Laerm;40124;52.198;9.902;2023-11-22T03:48:16;58.35;44.62;78.20;;
52872;Laerm;40124;52.198;9.902;2023-11-22T03:50:41;60.47;44.39;78.38;;
52872;Laerm;40124;52.198;9.902;2023-11-22T03:53:07;65.47;45.30;85.13;;
52872;Laerm;40124;52.198;9.902;2023-11-22T03:55:32;61.89;44.47;80.23;;
52872;Laerm;40124;52.198;9.902;2023-11-22T03:57:57;59.91;43.63;77.94;;
52872;Laerm;40124;52.198;9.902;2023-11-22T04:00:22;56.39;43.19;76.78;;
52872;Laerm;40124;52.198;9.902;2023-11-22T04:02:49;60.06;43.90;79.88;;
52872;Laerm;40124;52.198;9.902;2023-11-22T04:05:14;56.18;43.90;79.68;;
52872;Laerm;40124;52.198;9.902;2023-11-22T04:07:39;67.21;44.58;81.49;;
52872;Laerm;40124;52.198;9.902;2023-11-22T04:10:04;58.57;43.80;79.94;;
52872;Laerm;40124;52.198;9.902;2023-11-22T04:12:31;64.11;44.15;80.01;;
52872;Laerm;40124;52.198;9.902;2023-11-22T04:14:56;66.35;45.01;80.95;;
52872;Laerm;40124;52.198;9.902;2023-11-22T04:17:21;68.72;45.04;81.96;;
52872;Laerm;40124;52.198;9.902;2023-11-22T04:19:46;68.48;47.50;83.66;;
52872;Laerm;40124;52.198;9.902;2023-11-22T04:22:11;67.08;44.35;86.39;;
52872;Laerm;40124;52.198;9.902;2023-11-22T04:24:37;67.21;44.87;79.82;;
52872;Laerm;40124;52.198;9.902;2023-11-22T04:27:02;69.58;45.75;85.72;;
52872;Laerm;40124;52.198;9.902;2023-11-22T04:29:28;71.55;45.83;89.66;;
52872;Laerm;40124;52.198;9.902;2023-11-22T04:31:53;68.71;46.25;81.11;;
52872;Laerm;40124;52.198;9.902;2023-11-22T04:34:18;68.82;49.20;81.30;;
52872;Laerm;40124;52.198;9.902;2023-11-22T04:36:43;67.04;45.69;82.95;;
52872;Laerm;40124;52.198;9.902;2023-11-22T04:39:11;69.31;46.97;86.38;;
52872;Laerm;40124;52.198;9.902;2023-11-22T04:41:38;71.31;46.13;86.40;;
52872;Laerm;40124;52.198;9.902;2023-11-22T04:44:03;70.25;48.05;82.34;;
52872;Laerm;40124;52.198;9.902;2023-11-22T04:46:28;76.09;47.59;93.66;;
52872;Laerm;40124;52.198;9.902;2023-11-22T04:48:53;64.97;46.43;80.52;;
52872;Laerm;40124;52.198;9.902;2023-11-22T04:51:19;68.01;47.88;81.97;;
52872;Laerm;40124;52.198;9.902;2023-11-22T04:53:44;66.36;48.25;82.05;;
52872;Laerm;40124;52.198;9.902;2023-11-22T04:56:09;69.86;46.05;83.41;;
52872;Laerm;40124;52.198;9.902;2023-11-22T04:58:34;77.14;48.42;95.71;;
52872;Laerm;40124;52.198;9.902;2023-11-22T05:01:00;64.95;46.10;79.95;;
52872;Laerm;40124;52.198;9.902;2023-11-22T05:03:26;68.69;48.16;84.25;;
52872;Laerm;40124;52.198;9.902;2023-11-22T05:05:51;74.11;50.52;88.48;;
52872;Laerm;40124;52.198;9.902;2023-11-22T05:08:16;76.43;53.69;95.93;;
52872;Laerm;40124;52.198;9.902;2023-11-22T05:10:42;72.69;50.08;91.18;;
52872;Laerm;40124;52.198;9.902;2023-11-22T05:13:07;67.74;48.00;80.67;;
52872;Laerm;40124;52.198;9.902;2023-11-22T05:15:32;68.31;49.30;82.01;;
52872;Laerm;40124;52.198;9.902;2023-11-22T05:17:57;70.02;49.45;82.62;;
52872;Laerm;40124;52.198;9.902;2023-11-22T05:20:22;71.70;51.30;86.39;;
52872;Laerm;40124;52.198;9.902;2023-11-22T05:22:47;71.72;48.13;87.92;;
52872;Laerm;40124;52.198;9.902;2023-11-22T05:25:13;69.08;46.80;84.55;;
52872;Laerm;40124;52.198;9.902;2023-11-22T05:27:38;69.82;49.10;83.57;;
52872;Laerm;40124;52.198;9.902;2023-11-22T05:30:03;71.80;49.18;84.10;;
52872;Laerm;40124;52.198;9.902;2023-11-22T05:32:29;71.23;50.84;85.60;;
52872;Laerm;40124;52.198;9.902;2023-11-22T05:34:56;68.56;47.32;81.56;;
52872;Laerm;40124;52.198;9.902;2023-11-22T05:37:21;69.96;47.40;81.54;;
52872;Laerm;40124;52.198;9.902;2023-11-22T05:39:46;69.75;48.49;82.33;;
52872;Laerm;40124;52.198;9.902;2023-11-22T05:42:11;70.97;51.56;82.85;;
52872;Laerm;40124;52.198;9.902;2023-11-22T05:44:36;70.89;52.36;85.75;;
52872;Laerm;40124;52.198;9.902;2023-11-22T05:47:02;70.86;50.88;82.16;;
52872;Laerm;40124;52.198;9.902;2023-11-22T05:49:27;74.47;53.66;87.84;;
52872;Laerm;40124;52.198;9.902;2023-11-22T05:51:53;72.87;55.34;87.28;;
52872;Laerm;40124;52.198;9.902;2023-11-22T05:54:18;72.35;49.69;86.82;;
52872;Laerm;40124;52.198;9.902;2023-11-22T05:56:43;72.40;48.46;87.46;;
52872;Laerm;40124;52.198;9.902;2023-11-22T05:59:09;71.88;52.09;83.23;;
52872;Laerm;40124;52.198;9.902;2023-11-22T06:01:34;72.03;53.69;83.69;;
52872;Laerm;40124;52.198;9.902;2023-11-22T06:03:59;72.25;49.71;81.31;;
52872;Laerm;40124;52.198;9.902;2023-11-22T06:06:24;72.79;51.09;88.05;;
52872;Laerm;40124;52.198;9.902;2023-11-22T06:08:49;69.90;49.16;84.23;;
52872;Laerm;40124;52.198;9.902;2023-11-22T06:11:15;74.00;58.28;86.69;;
52872;Laerm;40124;52.198;9.902;2023-11-22T06:13:40;71.93;52.19;82.83;;
52872;Laerm;40124;52.198;9.902;2023-11-22T06:16:05;70.82;50.58;82.86;;
52872;Laerm;40124;52.198;9.902;2023-11-22T06:18:32;71.64;51.84;84.02;;
52872;Laerm;40124;52.198;9.902;2023-11-22T06:20:59;70.99;53.86;82.06;;
52872;Laerm;40124;52.198;9.902;2023-11-22T06:23:24;73.00;54.37;85.38;;
52872;Laerm;40124;52.198;9.902;2023-11-22T06:25:49;70.84;52.06;84.82;;
52872;Laerm;40124;52.198;9.902;2023-11-22T06:28:14;72.61;53.62;83.00;;
52872;Laerm;40124;52.198;9.902;2023-11-22T06:30:40;72.53;56.25;81.61;;
52872;Laerm;40124;52.198;9.902;2023-11-22T06:33:05;72.29;52.50;83.87;;
52872;Laerm;40124;52.198;9.902;2023-11-22T06:35:30;73.24;54.91;84.72;;
52872;Laerm;40124;52.198;9.902;2023-11-22T06:37:56;72.66;55.16;88.06;;
52872;Laerm;40124;52.198;9.902;2023-11-22T06:40:21;76.59;52.55;90.83;;
52872;Laerm;40124;52.198;9.902;2023-11-22T06:42:46;71.86;53.40;81.73;;
52872;Laerm;40124;52.198;9.902;2023-11-22T06:45:11;73.29;55.37;90.91;;
52872;Laerm;40124;52.198;9.902;2023-11-22T06:47:38;70.39;52.37;83.66;;
52872;Laerm;40124;52.198;9.902;2023-11-22T06:50:03;72.20;51.73;83.21;;
52872;Laerm;40124;52.198;9.902;2023-11-22T06:52:34;73.35;51.70;84.61;;
52872;Laerm;40124;52.198;9.902;2023-11-22T06:54:59;72.22;54.56;84.39;;
52872;Laerm;40124;52.198;9.902;2023-11-22T06:57:24;72.31;54.04;83.48;;
52872;Laerm;40124;52.198;9.902;2023-11-22T06:59:53;72.07;53.96;84.44;;
52872;Laerm;40124;52.198;9.902;2023-11-22T07:02:19;71.60;52.85;83.40;;
52872;Laerm;40124;52.198;9.902;2023-11-22T07:04:44;72.64;53.70;85.23;;
52872;Laerm;40124;52.198;9.902;2023-11-22T07:07:09;71.82;51.44;84.24;;
52872;Laerm;40124;52.198;9.902;2023-11-22T07:09:36;72.54;54.79;83.44;;
52872;Laerm;40124;52.198;9.902;2023-11-22T07:12:01;72.45;52.50;88.28;;
52872;Laerm;40124;52.198;9.902;2023-11-22T07:14:27;70.54;51.52;82.74;;
52872;Laerm;40124;52.198;9.902;2023-11-22T07:16:54;72.59;53.61;84.84;;
52872;Laerm;40124;52.198;9.902;2023-11-22T07:19:19;72.48;51.37;86.82;;
52872;Laerm;40124;52.198;9.902;2023-11-22T07:21:44;74.26;52.67;91.80;;
52872;Laerm;40124;52.198;9.902;2023-11-22T07:24:09;71.35;53.84;83.62;;
52872;Laerm;40124;52.198;9.902;2023-11-22T07:26:38;72.01;50.90;89.77;;
52872;Laerm;40124;52.198;9.902;2023-11-22T07:29:03;69.06;50.06;85.37;;
52872;Laerm;40124;52.198;9.902;2023-11-22T07:31:29;72.55;50.65;86.48;;
52872;Laerm;40124;52.198;9.902;2023-11-22T07:33:54;71.16;51.72;87.40;;
52872;Laerm;40124;52.198;9.902;2023-11-22T07:36:20;71.23;51.57;83.31;;
52872;Laerm;40124;52.198;9.902;2023-11-22T07:38:45;69.30;50.99;83.66;;
52872;Laerm;40124;52.198;9.902;2023-11-22T07:41:13;71.46;48.54;88.76;;
52872;Laerm;40124;52.198;9.902;2023-11-22T07:43:38;72.70;50.68;86.17;;
52872;Laerm;40124;52.198;9.902;2023-11-22T07:46:07;71.57;51.28;84.13;;
52872;Laerm;40124;52.198;9.902;2023-11-22T07:48:37;70.29;49.19;86.86;;
52872;Laerm;40124;52.198;9.902;2023-11-22T07:51:02;71.71;49.38;86.56;;
52872;Laerm;40124;52.198;9.902;2023-11-22T07:53:27;70.71;51.45;83.65;;
52872;Laerm;40124;52.198;9.902;2023-11-22T07:55:54;71.39;49.10;90.58;;
52872;Laerm;40124;52.198;9.902;2023-11-22T07:58:19;71.08;47.06;85.55;;
52872;Laerm;40124;52.198;9.902;2023-11-22T08:00:45;72.44;47.30;87.21;;
52872;Laerm;40124;52.198;9.902;2023-11-22T08:03:10;69.55;51.04;79.25;;
52872;Laerm;40124;52.198;9.902;2023-11-22T08:05:35;72.37;49.67;87.42;;
52872;Laerm;40124;52.198;9.902;2023-11-22T08:08:03;69.62;48.67;84.75;;
52872;Laerm;40124;52.198;9.902;2023-11-22T08:10:33;69.37;49.73;82.59;;
52872;Laerm;40124;52.198;9.902;2023-11-22T08:12:59;69.81;49.82;86.08;;
52872;Laerm;40124;52.198;9.902;2023-11-22T08:15:24;72.16;50.13;88.14;;
52872;Laerm;40124;52.198;9.902;2023-11-22T08:17:50;68.98;47.76;82.64;;
52872;Laerm;40124;52.198;9.902;2023-11-22T08:20:15;69.73;45.01;83.68;;
52872;Laerm;40124;52.198;9.902;2023-11-22T08:22:43;69.47;45.60;84.10;;
52872;Laerm;40124;52.198;9.902;2023-11-22T08:25:10;68.79;44.51;81.26;;
52872;Laerm;40124;52.198;9.902;2023-11-22T08:27:37;67.74;44.73;80.54;;
52872;Laerm;40124;52.198;9.902;2023-11-22T08:30:03;69.39;45.48;86.43;;
52872;Laerm;40124;52.198;9.902;2023-11-22T08:32:30;71.33;46.71;87.06;;
52872;Laerm;40124;52.198;9.902;2023-11-22T08:34:56;68.13;49.92;80.30;;
52872;Laerm;40124;52.198;9.902;2023-11-22T08:37:21;70.41;47.81;89.48;;
52872;Laerm;40124;52.198;9.902;2023-11-22T08:39:46;69.26;49.98;81.36;;
52872;Laerm;40124;52.198;9.902;2023-11-22T08:42:12;71.08;46.95;85.98;;
52872;Laerm;40124;52.198;9.902;2023-11-22T08:44:39;68.66;45.75;86.46;;
52872;Laerm;40124;52.198;9.902;2023-11-22T08:47:04;73.16;44.19;87.84;;
52872;Laerm;40124;52.198;9.902;2023-11-22T08:49:29;69.13;44.92;82.57;;
52872;Laerm;40124;52.198;9.902;2023-11-22T08:51:56;71.31;51.53;87.95;;
52872;Laerm;40124;52.198;9.902;2023-11-22T08:54:21;68.16;46.82;83.07;;
52872;Laerm;40124;52.198;9.902;2023-11-22T08:56:46;70.91;43.34;88.22;;
52872;Laerm;40124;52.198;9.902;2023-11-22T08:59:12;71.14;46.52;88.27;;
52872;Laerm;40124;52.198;9.902;2023-11-22T09:01:37;70.44;45.83;85.31;;
52872;Laerm;40124;52.198;9.902;2023-11-22T09:04:02;67.28;46.82;81.54;;
52872;Laerm;40124;52.198;9.902;2023-11-22T09:06:27;73.29;51.22;86.34;;
52872;Laerm;40124;52.198;9.902;2023-11-22T09:08:54;70.95;46.28;86.80;;
52872;Laerm;40124;52.198;9.902;2023-11-22T09:11:19;71.73;49.58;90.19;;
52872;Laerm;40124;52.198;9.902;2023-11-22T09:13:47;71.04;44.73;86.52;;
52872;Laerm;40124;52.198;9.902;2023-11-22T09:16:12;72.81;51.13;90.84;;
52872;Laerm;40124;52.198;9.902;2023-11-22T09:18:38;68.56;42.59;80.81;;
52872;Laerm;40124;52.198;9.902;2023-11-22T09:21:03;69.14;46.35;81.53;;
52872;Laerm;40124;52.198;9.902;2023-11-22T09:23:29;69.50;43.49;83.44;;
52872;Laerm;40124;52.198;9.902;2023-11-22T09:25:55;69.02;50.76;80.22;;
52872;Laerm;40124;52.198;9.902;2023-11-22T09:28:20;69.15;50.56;81.41;;
52872;Laerm;40124;52.198;9.902;2023-11-22T09:30:46;70.90;50.71;87.25;;
52872;Laerm;40124;52.198;9.902;2023-11-22T09:33:14;71.30;44.87;89.49;;
52872;Laerm;40124;52.198;9.902;2023-11-22T09:35:40;69.80;48.36;85.07;;
52872;Laerm;40124;52.198;9.902;2023-11-22T09:38:07;69.47;46.23;82.56;;
52872;Laerm;40124;52.198;9.902;2023-11-22T09:40:36;67.26;42.82;80.99;;
52872;Laerm;40124;52.198;9.902;2023-11-22T09:43:03;69.88;45.20;81.36;;
52872;Laerm;40124;52.198;9.902;2023-11-22T09:45:28;66.87;46.71;80.98;;
52872;Laerm;40124;52.198;9.902;2023-11-22T09:47:57;69.94;48.52;83.09;;
52872;Laerm;40124;52.198;9.902;2023-11-22T09:52:49;71.42;50.06;87.08;;
52872;Laerm;40124;52.198;9.902;2023-11-22T09:55:15;71.15;49.00;86.77;;
52872;Laerm;40124;52.198;9.902;2023-11-22T09:57:40;70.15;46.64;85.47;;
52872;Laerm;40124;52.198;9.902;2023-11-22T10:00:07;68.61;45.20;81.19;;
52872;Laerm;40124;52.198;9.902;2023-11-22T10:02:33;69.17;47.70;84.48;;
52872;Laerm;40124;52.198;9.902;2023-11-22T10:05:00;69.11;48.03;83.35;;
52872;Laerm;40124;52.198;9.902;2023-11-22T10:07:25;71.49;46.02;86.77;;
52872;Laerm;40124;52.198;9.902;2023-11-22T10:09:50;66.30;42.71;79.69;;
52872;Laerm;40124;52.198;9.902;2023-11-22T10:12:19;72.04;47.55;87.83;;
52872;Laerm;40124;52.198;9.902;2023-11-22T10:14:45;69.21;45.23;83.96;;
52872;Laerm;40124;52.198;9.902;2023-11-22T10:17:11;71.63;45.89;84.45;;
52872;Laerm;40124;52.198;9.902;2023-11-22T10:19:36;67.10;43.34;82.88;;
52872;Laerm;40124;52.198;9.902;2023-11-22T10:22:01;71.97;50.82;83.46;;
52872;Laerm;40124;52.198;9.902;2023-11-22T10:24:29;68.12;44.73;81.35;;
52872;Laerm;40124;52.198;9.902;2023-11-22T10:26:55;68.73;45.23;82.03;;
52872;Laerm;40124;52.198;9.902;2023-11-22T10:29:22;70.55;43.34;86.28;;
52872;Laerm;40124;52.198;9.902;2023-11-22T10:31:49;70.23;45.04;83.85;;
52872;Laerm;40124;52.198;9.902;2023-11-22T10:34:15;68.69;47.42;82.95;;
52872;Laerm;40124;52.198;9.902;2023-11-22T10:36:43;72.42;45.75;87.87;;
52872;Laerm;40124;52.198;9.902;2023-11-22T10:39:08;69.42;46.05;80.55;;
52872;Laerm;40124;52.198;9.902;2023-11-22T10:41:40;68.03;43.86;84.00;;
52872;Laerm;40124;52.198;9.902;2023-11-22T10:44:05;69.95;50.37;85.42;;
52872;Laerm;40124;52.198;9.902;2023-11-22T10:46:31;73.90;51.69;88.19;;
52872;Laerm;40124;52.198;9.902;2023-11-22T10:48:56;68.41;44.69;84.06;;
52872;Laerm;40124;52.198;9.902;2023-11-22T10:51:23;71.28;52.67;84.08;;
52872;Laerm;40124;52.198;9.902;2023-11-22T10:53:49;67.84;44.11;79.34;;
52872;Laerm;40124;52.198;9.902;2023-11-22T10:56:16;65.17;43.81;79.57;;
52872;Laerm;40124;52.198;9.902;2023-11-22T10:58:52;69.29;44.90;86.01;;
52872;Laerm;40124;52.198;9.902;2023-11-22T11:01:20;71.08;42.59;82.91;;
52872;Laerm;40124;52.198;9.902;2023-11-22T11:04:02;70.31;51.39;80.98;;
52872;Laerm;40124;52.198;9.902;2023-11-22T11:06:31;69.18;45.86;83.02;;
52872;Laerm;40124;52.198;9.902;2023-11-22T11:08:59;67.53;42.03;80.86;;
52872;Laerm;40124;52.198;9.902;2023-11-22T11:11:25;72.48;45.78;89.68;;
52872;Laerm;40124;52.198;9.902;2023-11-22T11:13:51;70.03;47.34;80.89;;
52872;Laerm;40124;52.198;9.902;2023-11-22T11:16:16;68.93;46.13;82.06;;
52872;Laerm;40124;52.198;9.902;2023-11-22T11:18:42;67.64;45.17;80.96;;
52872;Laerm;40124;52.198;9.902;2023-11-22T11:21:08;71.05;46.59;86.91;;
52872;Laerm;40124;52.198;9.902;2023-11-22T11:23:37;73.00;41.38;91.93;;
52872;Laerm;40124;52.198;9.902;2023-11-22T11:26:16;66.61;41.06;82.69;;
52872;Laerm;40124;52.198;9.902;2023-11-22T11:28:43;69.77;46.93;86.25;;
52872;Laerm;40124;52.198;9.902;2023-11-22T11:31:09;66.11;44.69;82.45;;
52872;Laerm;40124;52.198;9.902;2023-11-22T11:33:34;68.67;42.35;81.74;;
52872;Laerm;40124;52.198;9.902;2023-11-22T11:36:02;69.62;52.03;82.23;;
52872;Laerm;40124;52.198;9.902;2023-11-22T11:38:32;69.85;43.77;82.58;;
52872;Laerm;40124;52.198;9.902;2023-11-22T11:41:05;70.98;43.19;86.99;;
52872;Laerm;40124;52.198;9.902;2023-11-22T11:43:38;73.72;51.18;88.37;;
52872;Laerm;40124;52.198;9.902;2023-11-22T11:46:06;68.89;45.17;82.93;;
52872;Laerm;40124;52.198;9.902;2023-11-22T11:48:31;74.42;51.25;89.66;;
52872;Laerm;40124;52.198;9.902;2023-11-22T11:50:56;67.60;43.77;77.85;;
52872;Laerm;40124;52.198;9.902;2023-11-22T11:53:21;71.81;46.18;85.88;;
52872;Laerm;40124;52.198;9.902;2023-11-22T11:55:47;69.13;47.55;81.75;;
52872;Laerm;40124;52.198;9.902;2023-11-22T11:58:15;71.38;55.40;82.42;;
52872;Laerm;40124;52.198;9.902;2023-11-22T12:00:41;68.26;46.69;81.69;;
52872;Laerm;40124;52.198;9.902;2023-11-22T12:03:09;68.42;45.54;82.52;;
52872;Laerm;40124;52.198;9.902;2023-11-22T12:05:35;69.57;44.80;80.40;;
52872;Laerm;40124;52.198;9.902;2023-11-22T12:08:00;70.01;44.51;84.94;;
52872;Laerm;40124;52.198;9.902;2023-11-22T12:10:25;67.14;43.90;79.45;;
52872;Laerm;40124;52.198;9.902;2023-11-22T12:12:50;73.07;47.18;90.60;;
52872;Laerm;40124;52.198;9.902;2023-11-22T12:15:15;71.39;52.06;86.42;;
52872;Laerm;40124;52.198;9.902;2023-11-22T12:17:40;69.51;45.83;83.34;;
52872;Laerm;40124;52.198;9.902;2023-11-22T12:20:12;69.99;50.68;84.18;;
52872;Laerm;40124;52.198;9.902;2023-11-22T12:22:39;71.21;48.37;87.62;;
52872;Laerm;40124;52.198;9.902;2023-11-22T12:25:04;71.52;46.13;86.22;;
52872;Laerm;40124;52.198;9.902;2023-11-22T12:27:30;72.74;46.84;87.17;;
52872;Laerm;40124;52.198;9.902;2023-11-22T12:29:56;70.77;48.74;83.78;;
52872;Laerm;40124;52.198;9.902;2023-11-22T12:32:23;71.17;51.25;88.03;;
52872;Laerm;40124;52.198;9.902;2023-11-22T12:34:48;73.99;55.14;87.30;;
52872;Laerm;40124;52.198;9.902;2023-11-22T12:37:14;72.46;48.78;85.62;;
52872;Laerm;40124;52.198;9.902;2023-11-22T12:39:40;71.78;48.28;86.23;;
52872;Laerm;40124;52.198;9.902;2023-11-22T12:42:06;72.46;46.71;85.03;;
52872;Laerm;40124;52.198;9.902;2023-11-22T12:44:44;70.71;45.36;82.09;;
52872;Laerm;40124;52.198;9.902;2023-11-22T12:47:12;71.04;42.59;86.07;;
52872;Laerm;40124;52.198;9.902;2023-11-22T12:49:43;71.29;45.80;85.63;;
52872;Laerm;40124;52.198;9.902;2023-11-22T12:52:10;71.17;44.58;87.49;;
52872;Laerm;40124;52.198;9.902;2023-11-22T12:54:35;71.67;48.07;85.14;;
52872;Laerm;40124;52.198;9.902;2023-11-22T12:57:00;71.10;44.19;82.06;;
52872;Laerm;40124;52.198;9.902;2023-11-22T12:59:26;74.04;47.02;90.20;;
52872;Laerm;40124;52.198;9.902;2023-11-22T13:01:55;72.58;44.58;87.22;;
52872;Laerm;40124;52.198;9.902;2023-11-22T13:04:21;71.08;47.95;81.90;;
52872;Laerm;40124;52.198;9.902;2023-11-22T13:06:46;72.00;45.33;86.46;;
52872;Laerm;40124;52.198;9.902;2023-11-22T13:09:12;71.74;49.83;86.73;;
52872;Laerm;40124;52.198;9.902;2023-11-22T13:11:43;71.87;43.63;84.62;;
52872;Laerm;40124;52.198;9.902;2023-11-22T13:14:08;70.46;48.49;83.41;;
52872;Laerm;40124;52.198;9.902;2023-11-22T13:16:33;72.85;44.83;86.23;;
52872;Laerm;40124;52.198;9.902;2023-11-22T13:18:59;71.45;42.76;83.00;;
52872;Laerm;40124;52.198;9.902;2023-11-22T13:21:25;71.77;50.94;81.70;;
52872;Laerm;40124;52.198;9.902;2023-11-22T13:23:50;73.44;45.17;85.50;;
52872;Laerm;40124;52.198;9.902;2023-11-22T13:26:15;73.84;49.85;87.75;;
52872;Laerm;40124;52.198;9.902;2023-11-22T13:28:41;70.97;53.17;82.04;;
52872;Laerm;40124;52.198;9.902;2023-11-22T13:31:07;74.02;46.43;90.25;;
52872;Laerm;40124;52.198;9.902;2023-11-22T13:33:32;72.78;50.92;84.12;;
52872;Laerm;40124;52.198;9.902;2023-11-22T13:35:58;74.83;48.05;88.17;;
52872;Laerm;40124;52.198;9.902;2023-11-22T13:38:23;75.56;46.59;91.09;;
52872;Laerm;40124;52.198;9.902;2023-11-22T13:40:48;69.31;42.88;82.72;;